sensor_id;sensor_type;location;lat;lon;timestamp;P1;durP1;ratioP1;P2;durP2;ratioP2
54983;SDS011;40884;53.562;9.940;2024-01-07T00:00:46;3.07;;;2.00;;
54983;SDS011;40884;53.562;9.940;2024-01-07T00:01:46;2.70;;;1.90;;
54983;SDS011;40884;53.562;9.940;2024-01-07T00:02:46;2.70;;;1.73;;
54983;SDS011;40884;53.562;9.940;2024-01-07T00:03:47;2.83;;;1.90;;
54983;SDS011;40884;53.562;9.940;2024-01-07T00:04:47;3.63;;;1.93;;
54983;SDS011;40884;53.562;9.940;2024-01-07T00:05:47;3.00;;;1.87;;
54983;SDS011;40884;53.562;9.940;2024-01-07T00:06:47;2.57;;;1.80;;
54983;SDS011;40884;53.562;9.940;2024-01-07T00:07:47;3.23;;;1.77;;
54983;SDS011;40884;53.562;9.940;2024-01-07T00:08:47;2.80;;;2.17;;
54983;SDS011;40884;53.562;9.940;2024-01-07T00:09:47;3.17;;;1.70;;
54983;SDS011;40884;53.562;9.940;2024-01-07T00:10:48;2.43;;;1.83;;
54983;SDS011;40884;53.562;9.940;2024-01-07T00:11:48;2.47;;;1.93;;
54983;SDS011;40884;53.562;9.940;2024-01-07T00:12:48;3.53;;;2.00;;
54983;SDS011;40884;53.562;9.940;2024-01-07T00:13:48;2.63;;;2.07;;
54983;SDS011;40884;53.562;9.940;2024-01-07T00:14:48;3.90;;;1.90;;
54983;SDS011;40884;53.562;9.940;2024-01-07T00:15:48;4.03;;;2.00;;
54983;SDS011;40884;53.562;9.940;2024-01-07T00:16:48;3.53;;;1.90;;
54983;SDS011;40884;53.562;9.940;2024-01-07T00:17:48;3.43;;;2.00;;
54983;SDS011;40884;53.562;9.940;2024-01-07T00:18:48;4.90;;;1.90;;
54983;SDS011;40884;53.562;9.940;2024-01-07T00:19:49;3.47;;;2.07;;
54983;SDS011;40884;53.562;9.940;2024-01-07T00:20:49;3.30;;;2.00;;
54983;SDS011;40884;53.562;9.940;2024-01-07T00:21:49;3.33;;;1.60;;
54983;SDS011;40884;53.562;9.940;2024-01-07T00:22:49;3.63;;;1.80;;
54983;SDS011;40884;53.562;9.940;2024-01-07T00:23:49;3.47;;;1.70;;
54983;SDS011;40884;53.562;9.940;2024-01-07T00:24:49;3.07;;;1.87;;
54983;SDS011;40884;53.562;9.940;2024-01-07T00:25:50;3.07;;;2.10;;
54983;SDS011;40884;53.562;9.940;2024-01-07T00:26:50;3.20;;;1.80;;
54983;SDS011;40884;53.562;9.940;2024-01-07T00:27:50;3.13;;;2.00;;
54983;SDS011;40884;53.562;9.940;2024-01-07T00:28:50;3.83;;;1.70;;
54983;SDS011;40884;53.562;9.940;2024-01-07T00:29:50;2.50;;;1.80;;
54983;SDS011;40884;53.562;9.940;2024-01-07T00:30:50;3.60;;;2.20;;
54983;SDS011;40884;53.562;9.940;2024-01-07T00:31:50;4.27;;;2.03;;
54983;SDS011;40884;53.562;9.940;2024-01-07T00:32:50;3.33;;;2.10;;
54983;SDS011;40884;53.562;9.940;2024-01-07T00:33:50;5.20;;;2.07;;
54983;SDS011;40884;53.562;9.940;2024-01-07T00:34:52;2.40;;;1.77;;
54983;SDS011;40884;53.562;9.940;2024-01-07T00:35:52;3.73;;;1.83;;
54983;SDS011;40884;53.562;9.940;2024-01-07T00:36:52;2.40;;;1.83;;
54983;SDS011;40884;53.562;9.940;2024-01-07T00:37:52;2.93;;;2.10;;
54983;SDS011;40884;53.562;9.940;2024-01-07T00:38:53;3.17;;;1.90;;
54983;SDS011;40884;53.562;9.940;2024-01-07T00:39:53;4.00;;;2.00;;
54983;SDS011;40884;53.562;9.940;2024-01-07T00:40:53;2.63;;;2.00;;
54983;SDS011;40884;53.562;9.940;2024-01-07T00:41:53;2.50;;;1.77;;
54983;SDS011;40884;53.562;9.940;2024-01-07T00:42:53;2.93;;;1.90;;
54983;SDS011;40884;53.562;9.940;2024-01-07T00:43:53;3.07;;;1.97;;
54983;SDS011;40884;53.562;9.940;2024-01-07T00:44:54;2.10;;;1.83;;
54983;SDS011;40884;53.562;9.940;2024-01-07T00:45:54;2.03;;;1.70;;
54983;SDS011;40884;53.562;9.940;2024-01-07T00:46:54;2.80;;;1.80;;
54983;SDS011;40884;53.562;9.940;2024-01-07T00:47:54;4.27;;;1.90;;
54983;SDS011;40884;53.562;9.940;2024-01-07T00:48:54;4.40;;;2.10;;
54983;SDS011;40884;53.562;9.940;2024-01-07T00:49:54;2.30;;;1.60;;
54983;SDS011;40884;53.562;9.940;2024-01-07T00:50:55;4.80;;;2.07;;
54983;SDS011;40884;53.562;9.940;2024-01-07T00:51:55;3.57;;;1.70;;
54983;SDS011;40884;53.562;9.940;2024-01-07T00:52:55;3.03;;;1.80;;
54983;SDS011;40884;53.562;9.940;2024-01-07T00:53:55;3.20;;;2.10;;
54983;SDS011;40884;53.562;9.940;2024-01-07T00:54:55;3.27;;;1.60;;
54983;SDS011;40884;53.562;9.940;2024-01-07T00:55:55;3.77;;;1.97;;
54983;SDS011;40884;53.562;9.940;2024-01-07T00:56:55;3.93;;;1.90;;
54983;SDS011;40884;53.562;9.940;2024-01-07T00:57:55;3.20;;;1.90;;
54983;SDS011;40884;53.562;9.940;2024-01-07T00:58:55;6.47;;;2.30;;
54983;SDS011;40884;53.562;9.940;2024-01-07T00:59:56;3.37;;;2.40;;
54983;SDS011;40884;53.562;9.940;2024-01-07T01:00:56;2.77;;;2.13;;
54983;SDS011;40884;53.562;9.940;2024-01-07T01:01:56;3.57;;;1.93;;
54983;SDS011;40884;53.562;9.940;2024-01-07T01:02:56;2.30;;;2.10;;
54983;SDS011;40884;53.562;9.940;2024-01-07T01:03:56;2.70;;;1.80;;
54983;SDS011;40884;53.562;9.940;2024-01-07T01:04:56;4.00;;;2.17;;
54983;SDS011;40884;53.562;9.940;2024-01-07T01:05:56;4.20;;;2.30;;
54983;SDS011;40884;53.562;9.940;2024-01-07T01:06:56;5.63;;;2.17;;
54983;SDS011;40884;53.562;9.940;2024-01-07T01:07:57;3.83;;;2.27;;
54983;SDS011;40884;53.562;9.940;2024-01-07T01:08:57;3.37;;;2.10;;
54983;SDS011;40884;53.562;9.940;2024-01-07T01:09:57;3.17;;;1.97;;
54983;SDS011;40884;53.562;9.940;2024-01-07T01:10:58;3.17;;;1.90;;
54983;SDS011;40884;53.562;9.940;2024-01-07T01:11:58;2.73;;;1.80;;
54983;SDS011;40884;53.562;9.940;2024-01-07T01:12:58;3.17;;;2.10;;
54983;SDS011;40884;53.562;9.940;2024-01-07T01:13:58;3.10;;;1.87;;
54983;SDS011;40884;53.562;9.940;2024-01-07T01:14:58;3.10;;;2.03;;
54983;SDS011;40884;53.562;9.940;2024-01-07T01:15:58;3.50;;;2.00;;
54983;SDS011;40884;53.562;9.940;2024-01-07T01:16:59;3.77;;;2.00;;
54983;SDS011;40884;53.562;9.940;2024-01-07T01:17:59;3.70;;;2.10;;
54983;SDS011;40884;53.562;9.940;2024-01-07T01:18:59;3.13;;;1.80;;
54983;SDS011;40884;53.562;9.940;2024-01-07T01:19:59;2.47;;;1.87;;
54983;SDS011;40884;53.562;9.940;2024-01-07T01:20:59;3.30;;;2.03;;
54983;SDS011;40884;53.562;9.940;2024-01-07T01:22:00;5.43;;;1.90;;
54983;SDS011;40884;53.562;9.940;2024-01-07T01:23:00;4.07;;;2.10;;
54983;SDS011;40884;53.562;9.940;2024-01-07T01:24:00;2.73;;;1.67;;
54983;SDS011;40884;53.562;9.940;2024-01-07T01:25:00;2.43;;;1.60;;
54983;SDS011;40884;53.562;9.940;2024-01-07T01:26:00;3.47;;;2.10;;
54983;SDS011;40884;53.562;9.940;2024-01-07T01:27:00;2.70;;;2.00;;
54983;SDS011;40884;53.562;9.940;2024-01-07T01:28:00;3.80;;;1.90;;
54983;SDS011;40884;53.562;9.940;2024-01-07T01:29:00;3.40;;;2.10;;
54983;SDS011;40884;53.562;9.940;2024-01-07T01:30:01;4.83;;;2.07;;
54983;SDS011;40884;53.562;9.940;2024-01-07T01:31:01;2.37;;;1.70;;
54983;SDS011;40884;53.562;9.940;2024-01-07T01:32:01;2.80;;;1.80;;
54983;SDS011;40884;53.562;9.940;2024-01-07T01:33:01;6.50;;;1.63;;
54983;SDS011;40884;53.562;9.940;2024-01-07T01:34:01;2.10;;;1.50;;
54983;SDS011;40884;53.562;9.940;2024-01-07T01:35:02;4.33;;;2.10;;
54983;SDS011;40884;53.562;9.940;2024-01-07T01:36:04;4.80;;;1.90;;
54983;SDS011;40884;53.562;9.940;2024-01-07T01:37:04;2.15;;;1.50;;
54983;SDS011;40884;53.562;9.940;2024-01-07T01:38:04;4.00;;;2.10;;
54983;SDS011;40884;53.562;9.940;2024-01-07T01:39:04;3.50;;;2.10;;
54983;SDS011;40884;53.562;9.940;2024-01-07T01:40:05;4.80;;;2.10;;
54983;SDS011;40884;53.562;9.940;2024-01-07T01:41:05;5.13;;;2.27;;
54983;SDS011;40884;53.562;9.940;2024-01-07T01:42:05;3.53;;;2.10;;
54983;SDS011;40884;53.562;9.940;2024-01-07T01:43:05;3.80;;;2.30;;
54983;SDS011;40884;53.562;9.940;2024-01-07T01:44:06;4.00;;;2.10;;
54983;SDS011;40884;53.562;9.940;2024-01-07T01:45:06;4.30;;;2.10;;
54983;SDS011;40884;53.562;9.940;2024-01-07T01:46:06;4.13;;;1.90;;
54983;SDS011;40884;53.562;9.940;2024-01-07T01:47:06;2.60;;;1.90;;
54983;SDS011;40884;53.562;9.940;2024-01-07T01:48:07;3.47;;;1.80;;
54983;SDS011;40884;53.562;9.940;2024-01-07T01:49:07;3.17;;;1.80;;
54983;SDS011;40884;53.562;9.940;2024-01-07T01:50:08;3.13;;;1.87;;
54983;SDS011;40884;53.562;9.940;2024-01-07T01:51:08;3.27;;;2.00;;
54983;SDS011;40884;53.562;9.940;2024-01-07T01:52:08;2.73;;;1.70;;
54983;SDS011;40884;53.562;9.940;2024-01-07T01:53:09;4.23;;;1.93;;
54983;SDS011;40884;53.562;9.940;2024-01-07T01:54:09;3.87;;;1.70;;
54983;SDS011;40884;53.562;9.940;2024-01-07T01:55:10;2.50;;;1.73;;
54983;SDS011;40884;53.562;9.940;2024-01-07T01:56:10;2.07;;;1.70;;
54983;SDS011;40884;53.562;9.940;2024-01-07T01:57:12;3.67;;;2.10;;
54983;SDS011;40884;53.562;9.940;2024-01-07T01:58:14;2.30;;;1.70;;
54983;SDS011;40884;53.562;9.940;2024-01-07T01:59:14;3.03;;;1.53;;
54983;SDS011;40884;53.562;9.940;2024-01-07T02:00:14;2.87;;;1.83;;
54983;SDS011;40884;53.562;9.940;2024-01-07T02:01:14;2.43;;;1.93;;
54983;SDS011;40884;53.562;9.940;2024-01-07T02:02:15;4.60;;;2.23;;
54983;SDS011;40884;53.562;9.940;2024-01-07T02:03:15;3.03;;;1.73;;
54983;SDS011;40884;53.562;9.940;2024-01-07T02:04:15;2.60;;;1.77;;
54983;SDS011;40884;53.562;9.940;2024-01-07T02:05:15;4.20;;;1.70;;
54983;SDS011;40884;53.562;9.940;2024-01-07T02:06:16;4.10;;;1.60;;
54983;SDS011;40884;53.562;9.940;2024-01-07T02:07:16;3.80;;;2.00;;
54983;SDS011;40884;53.562;9.940;2024-01-07T02:08:17;2.80;;;1.77;;
54983;SDS011;40884;53.562;9.940;2024-01-07T02:09:17;2.85;;;2.08;;
54983;SDS011;40884;53.562;9.940;2024-01-07T02:10:17;3.00;;;1.73;;
54983;SDS011;40884;53.562;9.940;2024-01-07T02:11:18;5.57;;;1.70;;
54983;SDS011;40884;53.562;9.940;2024-01-07T02:12:18;3.47;;;1.80;;
54983;SDS011;40884;53.562;9.940;2024-01-07T02:13:18;4.27;;;2.00;;
54983;SDS011;40884;53.562;9.940;2024-01-07T02:14:18;2.40;;;1.80;;
54983;SDS011;40884;53.562;9.940;2024-01-07T02:15:18;3.43;;;2.10;;
54983;SDS011;40884;53.562;9.940;2024-01-07T02:16:19;3.07;;;1.73;;
54983;SDS011;40884;53.562;9.940;2024-01-07T02:17:19;1.87;;;1.67;;
54983;SDS011;40884;53.562;9.940;2024-01-07T02:18:19;3.03;;;1.80;;
54983;SDS011;40884;53.562;9.940;2024-01-07T02:19:19;2.30;;;1.80;;
54983;SDS011;40884;53.562;9.940;2024-01-07T02:20:20;3.00;;;1.83;;
54983;SDS011;40884;53.562;9.940;2024-01-07T02:21:20;2.57;;;1.67;;
54983;SDS011;40884;53.562;9.940;2024-01-07T02:22:21;3.90;;;1.70;;
54983;SDS011;40884;53.562;9.940;2024-01-07T02:23:21;2.87;;;1.80;;
54983;SDS011;40884;53.562;9.940;2024-01-07T02:24:21;2.67;;;1.57;;
54983;SDS011;40884;53.562;9.940;2024-01-07T02:25:21;2.80;;;1.80;;
54983;SDS011;40884;53.562;9.940;2024-01-07T02:26:21;3.50;;;1.60;;
54983;SDS011;40884;53.562;9.940;2024-01-07T02:27:22;3.10;;;1.80;;
54983;SDS011;40884;53.562;9.940;2024-01-07T02:28:22;3.20;;;2.00;;
54983;SDS011;40884;53.562;9.940;2024-01-07T02:29:22;4.40;;;1.70;;
54983;SDS011;40884;53.562;9.940;2024-01-07T02:30:22;3.20;;;1.67;;
54983;SDS011;40884;53.562;9.940;2024-01-07T02:31:22;2.13;;;1.50;;
54983;SDS011;40884;53.562;9.940;2024-01-07T02:32:23;4.40;;;1.90;;
54983;SDS011;40884;53.562;9.940;2024-01-07T02:33:23;4.00;;;1.63;;
54983;SDS011;40884;53.562;9.940;2024-01-07T02:34:23;2.87;;;1.90;;
54983;SDS011;40884;53.562;9.940;2024-01-07T02:35:23;2.37;;;1.77;;
54983;SDS011;40884;53.562;9.940;2024-01-07T02:36:24;2.87;;;1.70;;
54983;SDS011;40884;53.562;9.940;2024-01-07T02:37:24;2.70;;;1.70;;
54983;SDS011;40884;53.562;9.940;2024-01-07T02:38:25;2.37;;;1.47;;
54983;SDS011;40884;53.562;9.940;2024-01-07T02:39:25;3.97;;;1.70;;
54983;SDS011;40884;53.562;9.940;2024-01-07T02:40:25;2.77;;;1.73;;
54983;SDS011;40884;53.562;9.940;2024-01-07T02:41:25;3.90;;;1.67;;
54983;SDS011;40884;53.562;9.940;2024-01-07T02:42:25;4.70;;;1.70;;
54983;SDS011;40884;53.562;9.940;2024-01-07T02:43:26;5.47;;;1.87;;
54983;SDS011;40884;53.562;9.940;2024-01-07T02:44:26;3.10;;;1.60;;
54983;SDS011;40884;53.562;9.940;2024-01-07T02:45:26;2.70;;;1.60;;
54983;SDS011;40884;53.562;9.940;2024-01-07T02:46:26;2.43;;;1.77;;
54983;SDS011;40884;53.562;9.940;2024-01-07T02:47:26;5.00;;;1.83;;
54983;SDS011;40884;53.562;9.940;2024-01-07T02:48:26;5.30;;;1.60;;
54983;SDS011;40884;53.562;9.940;2024-01-07T02:49:27;3.73;;;1.83;;
54983;SDS011;40884;53.562;9.940;2024-01-07T02:50:28;3.10;;;1.50;;
54983;SDS011;40884;53.562;9.940;2024-01-07T02:51:28;2.73;;;1.60;;
54983;SDS011;40884;53.562;9.940;2024-01-07T02:52:28;1.53;;;1.40;;
54983;SDS011;40884;53.562;9.940;2024-01-07T02:53:28;3.73;;;1.90;;
54983;SDS011;40884;53.562;9.940;2024-01-07T02:54:29;3.30;;;1.80;;
54983;SDS011;40884;53.562;9.940;2024-01-07T02:55:29;3.47;;;1.80;;
54983;SDS011;40884;53.562;9.940;2024-01-07T02:56:29;3.43;;;1.40;;
54983;SDS011;40884;53.562;9.940;2024-01-07T02:57:29;2.90;;;1.80;;
54983;SDS011;40884;53.562;9.940;2024-01-07T02:58:29;2.40;;;1.53;;
54983;SDS011;40884;53.562;9.940;2024-01-07T02:59:29;4.93;;;1.60;;
54983;SDS011;40884;53.562;9.940;2024-01-07T03:00:30;2.90;;;1.80;;
54983;SDS011;40884;53.562;9.940;2024-01-07T03:01:30;5.13;;;1.50;;
54983;SDS011;40884;53.562;9.940;2024-01-07T03:02:30;3.27;;;1.90;;
54983;SDS011;40884;53.562;9.940;2024-01-07T03:03:30;4.50;;;2.03;;
54983;SDS011;40884;53.562;9.940;2024-01-07T03:04:30;3.67;;;1.63;;
54983;SDS011;40884;53.562;9.940;2024-01-07T03:05:30;3.53;;;1.87;;
54983;SDS011;40884;53.562;9.940;2024-01-07T03:06:30;2.07;;;1.40;;
54983;SDS011;40884;53.562;9.940;2024-01-07T03:07:31;2.40;;;1.40;;
54983;SDS011;40884;53.562;9.940;2024-01-07T03:08:31;4.63;;;1.90;;
54983;SDS011;40884;53.562;9.940;2024-01-07T03:09:31;2.67;;;1.90;;
54983;SDS011;40884;53.562;9.940;2024-01-07T03:10:31;2.10;;;1.50;;
54983;SDS011;40884;53.562;9.940;2024-01-07T03:11:31;3.30;;;1.50;;
54983;SDS011;40884;53.562;9.940;2024-01-07T03:12:31;4.27;;;1.50;;
54983;SDS011;40884;53.562;9.940;2024-01-07T03:13:32;2.17;;;1.47;;
54983;SDS011;40884;53.562;9.940;2024-01-07T03:14:32;2.63;;;1.60;;
54983;SDS011;40884;53.562;9.940;2024-01-07T03:15:32;2.67;;;2.00;;
54983;SDS011;40884;53.562;9.940;2024-01-07T03:16:32;3.37;;;2.17;;
54983;SDS011;40884;53.562;9.940;2024-01-07T03:17:32;3.00;;;1.63;;
54983;SDS011;40884;53.562;9.940;2024-01-07T03:18:33;3.33;;;1.93;;
54983;SDS011;40884;53.562;9.940;2024-01-07T03:19:33;2.90;;;1.67;;
54983;SDS011;40884;53.562;9.940;2024-01-07T03:20:33;3.57;;;1.80;;
54983;SDS011;40884;53.562;9.940;2024-01-07T03:21:33;2.23;;;1.50;;
54983;SDS011;40884;53.562;9.940;2024-01-07T03:22:33;3.37;;;1.63;;
54983;SDS011;40884;53.562;9.940;2024-01-07T03:23:35;2.23;;;1.60;;
54983;SDS011;40884;53.562;9.940;2024-01-07T03:24:36;4.13;;;1.80;;
54983;SDS011;40884;53.562;9.940;2024-01-07T03:25:36;1.93;;;1.50;;
54983;SDS011;40884;53.562;9.940;2024-01-07T03:26:36;2.50;;;1.80;;
54983;SDS011;40884;53.562;9.940;2024-01-07T03:27:36;2.70;;;1.70;;
54983;SDS011;40884;53.562;9.940;2024-01-07T03:28:36;2.10;;;1.40;;
54983;SDS011;40884;53.562;9.940;2024-01-07T03:29:36;2.87;;;1.43;;
54983;SDS011;40884;53.562;9.940;2024-01-07T03:30:36;2.73;;;1.50;;
54983;SDS011;40884;53.562;9.940;2024-01-07T03:31:37;4.00;;;1.70;;
54983;SDS011;40884;53.562;9.940;2024-01-07T03:32:37;3.30;;;1.87;;
54983;SDS011;40884;53.562;9.940;2024-01-07T03:33:38;2.50;;;1.70;;
54983;SDS011;40884;53.562;9.940;2024-01-07T03:34:38;3.40;;;2.10;;
54983;SDS011;40884;53.562;9.940;2024-01-07T03:35:38;3.67;;;1.67;;
54983;SDS011;40884;53.562;9.940;2024-01-07T03:36:38;1.90;;;1.40;;
54983;SDS011;40884;53.562;9.940;2024-01-07T03:37:38;2.77;;;1.60;;
54983;SDS011;40884;53.562;9.940;2024-01-07T03:38:39;3.00;;;1.60;;
54983;SDS011;40884;53.562;9.940;2024-01-07T03:39:39;3.67;;;1.63;;
54983;SDS011;40884;53.562;9.940;2024-01-07T03:40:40;2.90;;;1.50;;
54983;SDS011;40884;53.562;9.940;2024-01-07T03:41:40;2.23;;;1.50;;
54983;SDS011;40884;53.562;9.940;2024-01-07T03:42:40;3.87;;;1.47;;
54983;SDS011;40884;53.562;9.940;2024-01-07T03:43:40;3.07;;;1.60;;
54983;SDS011;40884;53.562;9.940;2024-01-07T03:44:40;3.77;;;1.77;;
54983;SDS011;40884;53.562;9.940;2024-01-07T03:45:40;1.90;;;1.50;;
54983;SDS011;40884;53.562;9.940;2024-01-07T03:46:40;3.70;;;1.60;;
54983;SDS011;40884;53.562;9.940;2024-01-07T03:47:41;3.80;;;1.50;;
54983;SDS011;40884;53.562;9.940;2024-01-07T03:48:41;3.63;;;1.40;;
54983;SDS011;40884;53.562;9.940;2024-01-07T03:49:41;2.77;;;1.60;;
54983;SDS011;40884;53.562;9.940;2024-01-07T03:50:41;3.00;;;1.47;;
54983;SDS011;40884;53.562;9.940;2024-01-07T03:51:41;1.90;;;1.40;;
54983;SDS011;40884;53.562;9.940;2024-01-07T03:52:41;2.87;;;1.70;;
54983;SDS011;40884;53.562;9.940;2024-01-07T03:53:42;4.10;;;1.60;;
54983;SDS011;40884;53.562;9.940;2024-01-07T03:54:42;2.67;;;1.93;;
54983;SDS011;40884;53.562;9.940;2024-01-07T03:55:42;2.30;;;1.40;;
54983;SDS011;40884;53.562;9.940;2024-01-07T03:56:42;3.27;;;1.43;;
54983;SDS011;40884;53.562;9.940;2024-01-07T03:57:43;2.80;;;1.33;;
54983;SDS011;40884;53.562;9.940;2024-01-07T03:58:43;3.73;;;1.53;;
54983;SDS011;40884;53.562;9.940;2024-01-07T03:59:43;3.47;;;1.60;;
54983;SDS011;40884;53.562;9.940;2024-01-07T04:00:43;3.97;;;1.60;;
54983;SDS011;40884;53.562;9.940;2024-01-07T04:01:43;3.33;;;1.80;;
54983;SDS011;40884;53.562;9.940;2024-01-07T04:02:43;3.03;;;1.40;;
54983;SDS011;40884;53.562;9.940;2024-01-07T04:03:43;3.33;;;1.60;;
54983;SDS011;40884;53.562;9.940;2024-01-07T04:04:44;7.23;;;1.63;;
54983;SDS011;40884;53.562;9.940;2024-01-07T04:05:44;2.60;;;1.47;;
54983;SDS011;40884;53.562;9.940;2024-01-07T04:06:44;2.40;;;1.47;;
54983;SDS011;40884;53.562;9.940;2024-01-07T04:07:44;2.20;;;1.50;;
54983;SDS011;40884;53.562;9.940;2024-01-07T04:08:44;2.37;;;1.30;;
54983;SDS011;40884;53.562;9.940;2024-01-07T04:09:44;1.83;;;1.43;;
54983;SDS011;40884;53.562;9.940;2024-01-07T04:10:44;1.93;;;1.30;;
54983;SDS011;40884;53.562;9.940;2024-01-07T04:11:44;2.03;;;1.27;;
54983;SDS011;40884;53.562;9.940;2024-01-07T04:12:44;2.60;;;1.40;;
54983;SDS011;40884;53.562;9.940;2024-01-07T04:13:45;5.00;;;1.60;;
54983;SDS011;40884;53.562;9.940;2024-01-07T04:14:45;1.83;;;1.30;;
54983;SDS011;40884;53.562;9.940;2024-01-07T04:15:45;3.30;;;1.83;;
54983;SDS011;40884;53.562;9.940;2024-01-07T04:16:45;3.10;;;1.50;;
54983;SDS011;40884;53.562;9.940;2024-01-07T04:17:45;3.50;;;1.50;;
54983;SDS011;40884;53.562;9.940;2024-01-07T04:18:46;2.53;;;1.30;;
54983;SDS011;40884;53.562;9.940;2024-01-07T04:19:46;2.60;;;1.20;;
54983;SDS011;40884;53.562;9.940;2024-01-07T04:20:46;2.63;;;1.40;;
54983;SDS011;40884;53.562;9.940;2024-01-07T04:21:46;3.10;;;1.30;;
54983;SDS011;40884;53.562;9.940;2024-01-07T04:22:46;5.73;;;1.80;;
54983;SDS011;40884;53.562;9.940;2024-01-07T04:23:46;3.33;;;1.30;;
54983;SDS011;40884;53.562;9.940;2024-01-07T04:24:46;2.13;;;1.30;;
54983;SDS011;40884;53.562;9.940;2024-01-07T04:25:46;1.80;;;1.40;;
54983;SDS011;40884;53.562;9.940;2024-01-07T04:26:47;2.00;;;1.20;;
54983;SDS011;40884;53.562;9.940;2024-01-07T04:27:49;2.40;;;1.60;;
54983;SDS011;40884;53.562;9.940;2024-01-07T04:28:50;3.13;;;1.87;;
54983;SDS011;40884;53.562;9.940;2024-01-07T04:29:50;2.67;;;1.20;;
54983;SDS011;40884;53.562;9.940;2024-01-07T04:30:50;8.63;;;2.10;;
54983;SDS011;40884;53.562;9.940;2024-01-07T04:31:50;2.00;;;1.30;;
54983;SDS011;40884;53.562;9.940;2024-01-07T04:32:50;4.03;;;1.90;;
54983;SDS011;40884;53.562;9.940;2024-01-07T04:33:50;1.87;;;1.23;;
54983;SDS011;40884;53.562;9.940;2024-01-07T04:34:50;2.30;;;1.30;;
54983;SDS011;40884;53.562;9.940;2024-01-07T04:35:51;2.67;;;1.30;;
54983;SDS011;40884;53.562;9.940;2024-01-07T04:36:51;2.20;;;1.63;;
54983;SDS011;40884;53.562;9.940;2024-01-07T04:37:51;1.90;;;1.47;;
54983;SDS011;40884;53.562;9.940;2024-01-07T04:38:51;2.40;;;1.60;;
54983;SDS011;40884;53.562;9.940;2024-01-07T04:39:51;2.70;;;1.30;;
54983;SDS011;40884;53.562;9.940;2024-01-07T04:40:51;2.50;;;1.13;;
54983;SDS011;40884;53.562;9.940;2024-01-07T04:41:51;2.43;;;1.33;;
54983;SDS011;40884;53.562;9.940;2024-01-07T04:42:51;2.20;;;1.30;;
54983;SDS011;40884;53.562;9.940;2024-01-07T04:43:52;2.20;;;1.40;;
54983;SDS011;40884;53.562;9.940;2024-01-07T04:44:52;3.87;;;1.27;;
54983;SDS011;40884;53.562;9.940;2024-01-07T04:45:52;2.27;;;1.30;;
54983;SDS011;40884;53.562;9.940;2024-01-07T04:46:52;3.20;;;1.40;;
54983;SDS011;40884;53.562;9.940;2024-01-07T04:47:52;2.63;;;1.53;;
54983;SDS011;40884;53.562;9.940;2024-01-07T04:48:52;3.37;;;1.50;;
54983;SDS011;40884;53.562;9.940;2024-01-07T04:49:52;1.73;;;1.20;;
54983;SDS011;40884;53.562;9.940;2024-01-07T04:50:52;1.60;;;1.30;;
54983;SDS011;40884;53.562;9.940;2024-01-07T04:51:52;4.73;;;1.40;;
54983;SDS011;40884;53.562;9.940;2024-01-07T04:52:53;3.43;;;1.47;;
54983;SDS011;40884;53.562;9.940;2024-01-07T04:53:53;2.30;;;1.30;;
54983;SDS011;40884;53.562;9.940;2024-01-07T04:54:53;2.50;;;1.40;;
54983;SDS011;40884;53.562;9.940;2024-01-07T04:55:53;2.70;;;1.27;;
54983;SDS011;40884;53.562;9.940;2024-01-07T04:56:53;2.13;;;1.30;;
54983;SDS011;40884;53.562;9.940;2024-01-07T04:57:53;1.77;;;1.10;;
54983;SDS011;40884;53.562;9.940;2024-01-07T04:58:53;1.93;;;1.20;;
54983;SDS011;40884;53.562;9.940;2024-01-07T04:59:54;1.90;;;0.90;;
54983;SDS011;40884;53.562;9.940;2024-01-07T05:00:54;3.97;;;1.30;;
54983;SDS011;40884;53.562;9.940;2024-01-07T05:01:54;1.17;;;0.90;;
54983;SDS011;40884;53.562;9.940;2024-01-07T05:02:54;1.80;;;1.27;;
54983;SDS011;40884;53.562;9.940;2024-01-07T05:03:54;2.70;;;0.97;;
54983;SDS011;40884;53.562;9.940;2024-01-07T05:04:54;1.97;;;1.00;;
54983;SDS011;40884;53.562;9.940;2024-01-07T05:05:54;1.53;;;1.07;;
54983;SDS011;40884;53.562;9.940;2024-01-07T05:06:54;2.20;;;1.20;;
54983;SDS011;40884;53.562;9.940;2024-01-07T05:07:54;2.17;;;1.20;;
54983;SDS011;40884;53.562;9.940;2024-01-07T05:08:55;2.60;;;1.03;;
54983;SDS011;40884;53.562;9.940;2024-01-07T05:09:55;2.77;;;1.27;;
54983;SDS011;40884;53.562;9.940;2024-01-07T05:10:55;1.33;;;0.90;;
54983;SDS011;40884;53.562;9.940;2024-01-07T05:11:55;3.83;;;1.47;;
54983;SDS011;40884;53.562;9.940;2024-01-07T05:12:55;3.03;;;1.03;;
54983;SDS011;40884;53.562;9.940;2024-01-07T05:13:55;1.67;;;0.93;;
54983;SDS011;40884;53.562;9.940;2024-01-07T05:14:55;2.33;;;1.10;;
54983;SDS011;40884;53.562;9.940;2024-01-07T05:15:56;5.50;;;1.13;;
54983;SDS011;40884;53.562;9.940;2024-01-07T05:16:56;1.83;;;1.10;;
54983;SDS011;40884;53.562;9.940;2024-01-07T05:17:56;1.60;;;0.93;;
54983;SDS011;40884;53.562;9.940;2024-01-07T05:18:56;0.97;;;0.83;;
54983;SDS011;40884;53.562;9.940;2024-01-07T05:19:56;4.63;;;1.10;;
54983;SDS011;40884;53.562;9.940;2024-01-07T05:20:56;1.50;;;1.00;;
54983;SDS011;40884;53.562;9.940;2024-01-07T05:21:56;1.77;;;1.00;;
54983;SDS011;40884;53.562;9.940;2024-01-07T05:22:56;1.77;;;1.20;;
54983;SDS011;40884;53.562;9.940;2024-01-07T05:23:56;2.50;;;1.10;;
54983;SDS011;40884;53.562;9.940;2024-01-07T05:24:57;2.00;;;1.10;;
54983;SDS011;40884;53.562;9.940;2024-01-07T05:25:59;2.53;;;1.10;;
54983;SDS011;40884;53.562;9.940;2024-01-07T05:27:00;1.92;;;0.98;;
54983;SDS011;40884;53.562;9.940;2024-01-07T05:28:00;1.47;;;1.03;;
54983;SDS011;40884;53.562;9.940;2024-01-07T05:29:00;1.80;;;1.13;;
54983;SDS011;40884;53.562;9.940;2024-01-07T05:30:00;2.00;;;1.03;;
54983;SDS011;40884;53.562;9.940;2024-01-07T05:31:01;2.40;;;1.10;;
54983;SDS011;40884;53.562;9.940;2024-01-07T05:32:01;2.40;;;1.10;;
54983;SDS011;40884;53.562;9.940;2024-01-07T05:33:01;1.90;;;1.10;;
54983;SDS011;40884;53.562;9.940;2024-01-07T05:34:01;1.17;;;0.90;;
54983;SDS011;40884;53.562;9.940;2024-01-07T05:35:01;2.53;;;1.40;;
54983;SDS011;40884;53.562;9.940;2024-01-07T05:36:02;1.90;;;1.00;;
54983;SDS011;40884;53.562;9.940;2024-01-07T05:37:03;1.75;;;1.20;;
54983;SDS011;40884;53.562;9.940;2024-01-07T05:38:03;2.17;;;1.33;;
54983;SDS011;40884;53.562;9.940;2024-01-07T05:39:04;1.10;;;0.90;;
54983;SDS011;40884;53.562;9.940;2024-01-07T05:40:04;2.70;;;1.00;;
54983;SDS011;40884;53.562;9.940;2024-01-07T05:41:04;2.17;;;1.07;;
54983;SDS011;40884;53.562;9.940;2024-01-07T05:42:04;1.10;;;0.90;;
54983;SDS011;40884;53.562;9.940;2024-01-07T05:43:05;1.93;;;1.10;;
54983;SDS011;40884;53.562;9.940;2024-01-07T05:44:06;1.80;;;1.10;;
54983;SDS011;40884;53.562;9.940;2024-01-07T05:45:06;2.03;;;1.00;;
54983;SDS011;40884;53.562;9.940;2024-01-07T05:46:07;2.43;;;1.10;;
54983;SDS011;40884;53.562;9.940;2024-01-07T05:47:07;1.43;;;1.00;;
54983;SDS011;40884;53.562;9.940;2024-01-07T05:48:07;2.23;;;1.03;;
54983;SDS011;40884;53.562;9.940;2024-01-07T05:49:08;2.30;;;1.10;;
54983;SDS011;40884;53.562;9.940;2024-01-07T05:50:08;1.70;;;1.10;;
54983;SDS011;40884;53.562;9.940;2024-01-07T05:51:08;4.07;;;1.07;;
54983;SDS011;40884;53.562;9.940;2024-01-07T05:52:08;1.90;;;1.13;;
54983;SDS011;40884;53.562;9.940;2024-01-07T05:53:08;2.00;;;1.10;;
54983;SDS011;40884;53.562;9.940;2024-01-07T05:54:08;1.10;;;1.00;;
54983;SDS011;40884;53.562;9.940;2024-01-07T05:55:08;1.50;;;0.97;;
54983;SDS011;40884;53.562;9.940;2024-01-07T05:56:09;1.47;;;1.00;;
54983;SDS011;40884;53.562;9.940;2024-01-07T05:57:09;3.43;;;1.20;;
54983;SDS011;40884;53.562;9.940;2024-01-07T05:58:09;4.20;;;1.33;;
54983;SDS011;40884;53.562;9.940;2024-01-07T05:59:09;2.30;;;1.00;;
54983;SDS011;40884;53.562;9.940;2024-01-07T06:00:09;7.53;;;1.20;;
54983;SDS011;40884;53.562;9.940;2024-01-07T06:01:17;2.08;;;1.15;;
54983;SDS011;40884;53.562;9.940;2024-01-07T06:02:18;2.75;;;1.20;;
54983;SDS011;40884;53.562;9.940;2024-01-07T06:03:18;1.93;;;1.17;;